Terminal Aerodrome Forecast
Issued by NWS

Home | Current Version | Previous Version | Text Only | Print | Product List | Glossary On
Versions: 1 2 3 4 5 6 7 8 9 10 11 12 13 14 15 16
000
FTUS41 KCAR 031120
TAFFVE
TAF
KFVE 031120Z 0312/0412 15007KT P6SM SCT070 BKN150
     FM031600 18012G18KT P6SM SCT050 BKN070
     FM032000 17011KT 5SM -TSRA SCT035CB OVC050
     FM040200 19006KT 4SM -SHRA VCTS OVC030CB
     FM040500 19006KT 3SM -SHRA BR OVC008=

USA.gov is the U.S. government's official web portal to all federal, state and local government web resources and services.